sensor_id;sensor_type;location;lat;lon;timestamp;P1;durP1;ratioP1;P2;durP2;ratioP2
24857;SDS011;12935;50.782;6.074;2023-04-22T00:00:40;39.23;;;7.53;;
24857;SDS011;12935;50.782;6.074;2023-04-22T00:03:06;43.27;;;7.63;;
24857;SDS011;12935;50.782;6.074;2023-04-22T00:05:32;22.10;;;5.00;;
24857;SDS011;12935;50.782;6.074;2023-04-22T00:07:57;35.33;;;7.27;;
24857;SDS011;12935;50.782;6.074;2023-04-22T00:10:23;37.57;;;6.97;;
24857;SDS011;12935;50.782;6.074;2023-04-22T00:12:48;21.83;;;4.97;;
24857;SDS011;12935;50.782;6.074;2023-04-22T00:15:13;41.03;;;8.13;;
24857;SDS011;12935;50.782;6.074;2023-04-22T00:17:39;37.53;;;7.00;;
24857;SDS011;12935;50.782;6.074;2023-04-22T00:20:05;28.10;;;5.60;;
24857;SDS011;12935;50.782;6.074;2023-04-22T00:22:31;42.37;;;7.90;;
24857;SDS011;12935;50.782;6.074;2023-04-22T00:24:57;40.93;;;8.00;;
24857;SDS011;12935;50.782;6.074;2023-04-22T00:27:22;23.43;;;5.17;;
24857;SDS011;12935;50.782;6.074;2023-04-22T00:29:47;34.83;;;6.50;;
24857;SDS011;12935;50.782;6.074;2023-04-22T00:32:12;25.30;;;6.33;;
24857;SDS011;12935;50.782;6.074;2023-04-22T00:34:38;47.20;;;8.10;;
24857;SDS011;12935;50.782;6.074;2023-04-22T00:37:03;27.03;;;5.20;;
24857;SDS011;12935;50.782;6.074;2023-04-22T00:39:28;55.90;;;9.80;;
24857;SDS011;12935;50.782;6.074;2023-04-22T00:41:54;29.40;;;5.70;;
24857;SDS011;12935;50.782;6.074;2023-04-22T00:44:19;28.80;;;6.03;;
24857;SDS011;12935;50.782;6.074;2023-04-22T00:46:46;29.40;;;6.47;;
24857;SDS011;12935;50.782;6.074;2023-04-22T00:49:12;36.03;;;8.20;;
24857;SDS011;12935;50.782;6.074;2023-04-22T00:51:39;25.38;;;5.43;;
24857;SDS011;12935;50.782;6.074;2023-04-22T00:54:05;27.80;;;6.13;;
24857;SDS011;12935;50.782;6.074;2023-04-22T00:56:30;29.37;;;5.97;;
24857;SDS011;12935;50.782;6.074;2023-04-22T00:58:57;40.50;;;7.33;;
24857;SDS011;12935;50.782;6.074;2023-04-22T01:01:23;28.93;;;6.23;;
24857;SDS011;12935;50.782;6.074;2023-04-22T01:03:49;48.33;;;8.87;;
24857;SDS011;12935;50.782;6.074;2023-04-22T01:06:17;26.90;;;5.60;;
24857;SDS011;12935;50.782;6.074;2023-04-22T01:08:44;35.80;;;7.93;;
24857;SDS011;12935;50.782;6.074;2023-04-22T01:11:10;35.73;;;6.77;;
24857;SDS011;12935;50.782;6.074;2023-04-22T01:13:35;27.27;;;6.07;;
24857;SDS011;12935;50.782;6.074;2023-04-22T01:16:02;54.10;;;10.13;;
24857;SDS011;12935;50.782;6.074;2023-04-22T01:18:30;34.13;;;6.67;;
24857;SDS011;12935;50.782;6.074;2023-04-22T01:20:56;36.67;;;7.43;;
24857;SDS011;12935;50.782;6.074;2023-04-22T01:23:21;49.17;;;8.47;;
24857;SDS011;12935;50.782;6.074;2023-04-22T01:25:47;28.93;;;5.53;;
24857;SDS011;12935;50.782;6.074;2023-04-22T01:28:13;26.58;;;6.00;;
24857;SDS011;12935;50.782;6.074;2023-04-22T01:30:40;32.70;;;6.00;;
24857;SDS011;12935;50.782;6.074;2023-04-22T01:33:06;48.22;;;8.25;;
24857;SDS011;12935;50.782;6.074;2023-04-22T01:35:32;42.30;;;7.28;;
24857;SDS011;12935;50.782;6.074;2023-04-22T01:38:01;52.27;;;9.73;;
24857;SDS011;12935;50.782;6.074;2023-04-22T01:40:31;30.10;;;6.03;;
24857;SDS011;12935;50.782;6.074;2023-04-22T01:42:57;39.53;;;7.60;;
24857;SDS011;12935;50.782;6.074;2023-04-22T01:45:23;29.98;;;6.35;;
24857;SDS011;12935;50.782;6.074;2023-04-22T01:47:49;32.57;;;6.20;;
24857;SDS011;12935;50.782;6.074;2023-04-22T01:50:14;40.00;;;9.00;;
24857;SDS011;12935;50.782;6.074;2023-04-22T01:52:40;43.03;;;7.70;;
24857;SDS011;12935;50.782;6.074;2023-04-22T01:55:05;26.00;;;6.17;;
24857;SDS011;12935;50.782;6.074;2023-04-22T01:57:31;30.25;;;6.15;;
24857;SDS011;12935;50.782;6.074;2023-04-22T01:59:57;28.57;;;7.00;;
24857;SDS011;12935;50.782;6.074;2023-04-22T02:02:22;18.43;;;5.10;;
24857;SDS011;12935;50.782;6.074;2023-04-22T02:04:47;43.10;;;7.63;;
24857;SDS011;12935;50.782;6.074;2023-04-22T02:07:13;44.73;;;7.23;;
24857;SDS011;12935;50.782;6.074;2023-04-22T02:09:38;35.87;;;8.80;;
24857;SDS011;12935;50.782;6.074;2023-04-22T02:12:03;31.17;;;6.50;;
24857;SDS011;12935;50.782;6.074;2023-04-22T02:14:29;33.13;;;6.97;;
24857;SDS011;12935;50.782;6.074;2023-04-22T02:16:54;16.10;;;5.10;;
24857;SDS011;12935;50.782;6.074;2023-04-22T02:19:20;50.97;;;8.30;;
24857;SDS011;12935;50.782;6.074;2023-04-22T02:21:45;30.37;;;7.57;;
24857;SDS011;12935;50.782;6.074;2023-04-22T02:24:11;45.00;;;9.90;;
24857;SDS011;12935;50.782;6.074;2023-04-22T02:26:36;41.20;;;10.17;;
24857;SDS011;12935;50.782;6.074;2023-04-22T02:29:01;33.43;;;7.07;;
24857;SDS011;12935;50.782;6.074;2023-04-22T02:31:27;33.00;;;6.20;;
24857;SDS011;12935;50.782;6.074;2023-04-22T02:33:52;34.87;;;6.80;;
24857;SDS011;12935;50.782;6.074;2023-04-22T02:36:17;27.70;;;6.13;;
24857;SDS011;12935;50.782;6.074;2023-04-22T02:38:42;26.33;;;5.50;;
24857;SDS011;12935;50.782;6.074;2023-04-22T02:41:08;27.13;;;6.60;;
24857;SDS011;12935;50.782;6.074;2023-04-22T02:43:33;21.30;;;5.20;;
24857;SDS011;12935;50.782;6.074;2023-04-22T02:45:58;27.67;;;7.37;;
24857;SDS011;12935;50.782;6.074;2023-04-22T02:48:24;57.70;;;10.40;;
24857;SDS011;12935;50.782;6.074;2023-04-22T02:50:49;40.13;;;7.50;;
24857;SDS011;12935;50.782;6.074;2023-04-22T02:53:14;35.70;;;7.57;;
24857;SDS011;12935;50.782;6.074;2023-04-22T02:55:40;26.40;;;6.03;;
24857;SDS011;12935;50.782;6.074;2023-04-22T02:58:06;33.97;;;6.50;;
24857;SDS011;12935;50.782;6.074;2023-04-22T03:00:32;35.17;;;6.57;;
24857;SDS011;12935;50.782;6.074;2023-04-22T03:02:58;25.73;;;6.00;;
24857;SDS011;12935;50.782;6.074;2023-04-22T03:05:23;32.53;;;6.20;;
24857;SDS011;12935;50.782;6.074;2023-04-22T03:07:49;51.37;;;8.50;;
24857;SDS011;12935;50.782;6.074;2023-04-22T03:10:14;40.03;;;7.33;;
24857;SDS011;12935;50.782;6.074;2023-04-22T03:12:39;32.80;;;7.00;;
24857;SDS011;12935;50.782;6.074;2023-04-22T03:15:05;25.63;;;7.33;;
24857;SDS011;12935;50.782;6.074;2023-04-22T03:17:31;29.40;;;6.50;;
24857;SDS011;12935;50.782;6.074;2023-04-22T03:19:56;42.17;;;10.10;;
24857;SDS011;12935;50.782;6.074;2023-04-22T03:22:21;31.67;;;6.93;;
24857;SDS011;12935;50.782;6.074;2023-04-22T03:24:46;41.23;;;8.00;;
24857;SDS011;12935;50.782;6.074;2023-04-22T03:27:12;35.43;;;8.90;;
24857;SDS011;12935;50.782;6.074;2023-04-22T03:29:37;38.93;;;7.17;;
24857;SDS011;12935;50.782;6.074;2023-04-22T03:32:03;43.20;;;9.40;;
24857;SDS011;12935;50.782;6.074;2023-04-22T03:34:28;50.77;;;8.77;;
24857;SDS011;12935;50.782;6.074;2023-04-22T03:36:53;50.63;;;7.93;;
24857;SDS011;12935;50.782;6.074;2023-04-22T03:39:19;56.30;;;9.70;;
24857;SDS011;12935;50.782;6.074;2023-04-22T03:41:44;27.40;;;6.03;;
24857;SDS011;12935;50.782;6.074;2023-04-22T03:44:10;46.37;;;9.33;;
24857;SDS011;12935;50.782;6.074;2023-04-22T03:46:35;33.50;;;6.70;;
24857;SDS011;12935;50.782;6.074;2023-04-22T03:49:00;34.10;;;6.97;;
24857;SDS011;12935;50.782;6.074;2023-04-22T03:51:25;33.97;;;6.60;;
24857;SDS011;12935;50.782;6.074;2023-04-22T03:53:51;31.27;;;6.43;;
24857;SDS011;12935;50.782;6.074;2023-04-22T03:56:16;19.40;;;5.70;;
24857;SDS011;12935;50.782;6.074;2023-04-22T03:58:41;46.27;;;7.67;;
24857;SDS011;12935;50.782;6.074;2023-04-22T04:01:06;32.33;;;6.30;;
24857;SDS011;12935;50.782;6.074;2023-04-22T04:03:32;38.23;;;8.57;;
24857;SDS011;12935;50.782;6.074;2023-04-22T04:05:57;35.77;;;7.37;;
24857;SDS011;12935;50.782;6.074;2023-04-22T04:08:22;38.60;;;7.10;;
24857;SDS011;12935;50.782;6.074;2023-04-22T04:10:47;34.00;;;6.53;;
24857;SDS011;12935;50.782;6.074;2023-04-22T04:13:13;35.23;;;6.80;;
24857;SDS011;12935;50.782;6.074;2023-04-22T04:15:38;22.93;;;5.27;;
24857;SDS011;12935;50.782;6.074;2023-04-22T04:18:03;33.67;;;6.77;;
24857;SDS011;12935;50.782;6.074;2023-04-22T04:20:29;32.27;;;6.97;;
24857;SDS011;12935;50.782;6.074;2023-04-22T04:22:54;42.70;;;7.13;;
24857;SDS011;12935;50.782;6.074;2023-04-22T04:25:20;34.33;;;7.43;;
24857;SDS011;12935;50.782;6.074;2023-04-22T04:27:46;31.57;;;6.33;;
24857;SDS011;12935;50.782;6.074;2023-04-22T04:30:11;20.43;;;5.30;;
24857;SDS011;12935;50.782;6.074;2023-04-22T04:32:37;31.77;;;6.63;;
24857;SDS011;12935;50.782;6.074;2023-04-22T04:35:03;24.10;;;5.80;;
24857;SDS011;12935;50.782;6.074;2023-04-22T04:37:28;26.90;;;5.47;;
24857;SDS011;12935;50.782;6.074;2023-04-22T04:39:54;35.90;;;6.90;;
24857;SDS011;12935;50.782;6.074;2023-04-22T04:42:23;26.90;;;6.27;;
24857;SDS011;12935;50.782;6.074;2023-04-22T04:44:48;21.40;;;5.50;;
24857;SDS011;12935;50.782;6.074;2023-04-22T04:47:14;37.90;;;8.27;;
24857;SDS011;12935;50.782;6.074;2023-04-22T04:49:40;38.63;;;7.37;;
24857;SDS011;12935;50.782;6.074;2023-04-22T04:52:05;24.17;;;5.73;;
24857;SDS011;12935;50.782;6.074;2023-04-22T04:54:34;29.13;;;6.67;;
24857;SDS011;12935;50.782;6.074;2023-04-22T04:56:59;23.87;;;6.10;;
24857;SDS011;12935;50.782;6.074;2023-04-22T04:59:25;32.53;;;7.27;;
24857;SDS011;12935;50.782;6.074;2023-04-22T05:01:51;37.60;;;7.80;;
24857;SDS011;12935;50.782;6.074;2023-04-22T05:04:16;36.03;;;7.23;;
24857;SDS011;12935;50.782;6.074;2023-04-22T05:06:41;32.30;;;7.80;;
24857;SDS011;12935;50.782;6.074;2023-04-22T05:09:07;31.17;;;6.97;;
24857;SDS011;12935;50.782;6.074;2023-04-22T05:11:32;32.53;;;6.67;;
24857;SDS011;12935;50.782;6.074;2023-04-22T05:13:58;23.10;;;5.67;;
24857;SDS011;12935;50.782;6.074;2023-04-22T05:16:24;40.97;;;7.97;;
24857;SDS011;12935;50.782;6.074;2023-04-22T05:18:50;38.60;;;8.13;;
24857;SDS011;12935;50.782;6.074;2023-04-22T05:21:15;46.47;;;8.70;;
24857;SDS011;12935;50.782;6.074;2023-04-22T05:23:40;27.80;;;7.00;;
24857;SDS011;12935;50.782;6.074;2023-04-22T05:26:06;26.10;;;5.87;;
24857;SDS011;12935;50.782;6.074;2023-04-22T05:28:31;35.63;;;7.10;;
24857;SDS011;12935;50.782;6.074;2023-04-22T05:30:56;20.43;;;4.80;;
24857;SDS011;12935;50.782;6.074;2023-04-22T05:33:22;33.97;;;6.60;;
24857;SDS011;12935;50.782;6.074;2023-04-22T05:35:47;40.20;;;8.07;;
24857;SDS011;12935;50.782;6.074;2023-04-22T05:38:12;31.10;;;6.80;;
24857;SDS011;12935;50.782;6.074;2023-04-22T05:40:38;40.07;;;7.40;;
24857;SDS011;12935;50.782;6.074;2023-04-22T05:43:04;35.23;;;7.40;;
24857;SDS011;12935;50.782;6.074;2023-04-22T05:45:29;32.83;;;7.43;;
24857;SDS011;12935;50.782;6.074;2023-04-22T05:47:55;35.07;;;7.67;;
24857;SDS011;12935;50.782;6.074;2023-04-22T05:50:20;37.40;;;7.80;;
24857;SDS011;12935;50.782;6.074;2023-04-22T05:52:46;31.47;;;6.87;;
24857;SDS011;12935;50.782;6.074;2023-04-22T05:55:11;41.40;;;9.13;;
24857;SDS011;12935;50.782;6.074;2023-04-22T05:57:36;22.77;;;5.60;;
24857;SDS011;12935;50.782;6.074;2023-04-22T06:00:03;45.77;;;8.63;;
24857;SDS011;12935;50.782;6.074;2023-04-22T06:02:29;51.33;;;9.13;;
24857;SDS011;12935;50.782;6.074;2023-04-22T06:04:54;26.90;;;6.60;;
24857;SDS011;12935;50.782;6.074;2023-04-22T06:07:20;41.67;;;8.03;;
24857;SDS011;12935;50.782;6.074;2023-04-22T06:09:45;44.03;;;9.30;;
24857;SDS011;12935;50.782;6.074;2023-04-22T06:12:10;26.50;;;7.20;;
24857;SDS011;12935;50.782;6.074;2023-04-22T06:14:35;28.60;;;7.03;;
24857;SDS011;12935;50.782;6.074;2023-04-22T06:17:01;46.20;;;10.37;;
24857;SDS011;12935;50.782;6.074;2023-04-22T06:19:26;53.13;;;9.87;;
24857;SDS011;12935;50.782;6.074;2023-04-22T06:21:51;37.77;;;8.40;;
24857;SDS011;12935;50.782;6.074;2023-04-22T06:24:17;37.67;;;8.63;;
24857;SDS011;12935;50.782;6.074;2023-04-22T06:26:42;24.23;;;6.53;;
24857;SDS011;12935;50.782;6.074;2023-04-22T06:29:08;29.83;;;7.77;;
24857;SDS011;12935;50.782;6.074;2023-04-22T06:31:33;39.97;;;8.50;;
24857;SDS011;12935;50.782;6.074;2023-04-22T06:33:59;47.30;;;9.33;;
24857;SDS011;12935;50.782;6.074;2023-04-22T06:36:24;33.70;;;8.70;;
24857;SDS011;12935;50.782;6.074;2023-04-22T06:38:51;23.17;;;8.33;;
24857;SDS011;12935;50.782;6.074;2023-04-22T06:41:17;26.70;;;7.50;;
24857;SDS011;12935;50.782;6.074;2023-04-22T06:43:42;32.97;;;7.57;;
24857;SDS011;12935;50.782;6.074;2023-04-22T06:46:08;18.67;;;6.57;;
24857;SDS011;12935;50.782;6.074;2023-04-22T06:48:33;32.70;;;8.70;;
24857;SDS011;12935;50.782;6.074;2023-04-22T06:50:58;23.37;;;7.10;;
24857;SDS011;12935;50.782;6.074;2023-04-22T06:53:25;42.37;;;9.90;;
24857;SDS011;12935;50.782;6.074;2023-04-22T06:55:50;46.57;;;9.97;;
24857;SDS011;12935;50.782;6.074;2023-04-22T06:58:17;18.77;;;7.97;;
24857;SDS011;12935;50.782;6.074;2023-04-22T07:00:42;32.83;;;8.33;;
24857;SDS011;12935;50.782;6.074;2023-04-22T07:03:08;33.47;;;9.33;;
24857;SDS011;12935;50.782;6.074;2023-04-22T07:05:33;37.13;;;8.80;;
24857;SDS011;12935;50.782;6.074;2023-04-22T07:07:58;29.30;;;8.80;;
24857;SDS011;12935;50.782;6.074;2023-04-22T07:10:24;37.73;;;10.07;;
24857;SDS011;12935;50.782;6.074;2023-04-22T07:12:49;32.33;;;10.00;;
24857;SDS011;12935;50.782;6.074;2023-04-22T07:15:14;45.93;;;10.43;;
24857;SDS011;12935;50.782;6.074;2023-04-22T07:17:40;39.07;;;11.00;;
24857;SDS011;12935;50.782;6.074;2023-04-22T07:20:05;24.20;;;8.20;;
24857;SDS011;12935;50.782;6.074;2023-04-22T07:22:31;31.23;;;9.07;;
24857;SDS011;12935;50.782;6.074;2023-04-22T07:24:56;27.60;;;8.90;;
24857;SDS011;12935;50.782;6.074;2023-04-22T07:27:21;47.83;;;11.17;;
24857;SDS011;12935;50.782;6.074;2023-04-22T07:29:47;25.97;;;8.80;;
24857;SDS011;12935;50.782;6.074;2023-04-22T07:32:12;36.43;;;9.60;;
24857;SDS011;12935;50.782;6.074;2023-04-22T07:34:37;47.50;;;11.83;;
24857;SDS011;12935;50.782;6.074;2023-04-22T07:37:03;19.70;;;8.37;;
24857;SDS011;12935;50.782;6.074;2023-04-22T07:39:29;50.63;;;12.70;;
24857;SDS011;12935;50.782;6.074;2023-04-22T07:41:54;32.60;;;10.27;;
24857;SDS011;12935;50.782;6.074;2023-04-22T07:44:21;24.03;;;9.03;;
24857;SDS011;12935;50.782;6.074;2023-04-22T07:46:47;39.13;;;10.77;;
24857;SDS011;12935;50.782;6.074;2023-04-22T07:49:13;49.53;;;12.67;;
24857;SDS011;12935;50.782;6.074;2023-04-22T07:51:39;36.90;;;10.97;;
24857;SDS011;12935;50.782;6.074;2023-04-22T07:54:05;35.20;;;10.23;;
24857;SDS011;12935;50.782;6.074;2023-04-22T07:56:30;41.03;;;10.90;;
24857;SDS011;12935;50.782;6.074;2023-04-22T07:58:55;25.30;;;9.87;;
24857;SDS011;12935;50.782;6.074;2023-04-22T08:01:21;40.10;;;11.13;;
24857;SDS011;12935;50.782;6.074;2023-04-22T08:03:46;51.27;;;13.33;;
24857;SDS011;12935;50.782;6.074;2023-04-22T08:06:11;32.43;;;10.73;;
24857;SDS011;12935;50.782;6.074;2023-04-22T08:08:37;39.57;;;11.90;;
24857;SDS011;12935;50.782;6.074;2023-04-22T08:11:02;40.97;;;12.33;;
24857;SDS011;12935;50.782;6.074;2023-04-22T08:13:27;28.67;;;10.33;;
24857;SDS011;12935;50.782;6.074;2023-04-22T08:15:53;35.97;;;11.10;;
24857;SDS011;12935;50.782;6.074;2023-04-22T08:18:18;46.07;;;12.27;;
24857;SDS011;12935;50.782;6.074;2023-04-22T08:20:43;36.67;;;11.33;;
24857;SDS011;12935;50.782;6.074;2023-04-22T08:23:11;43.43;;;12.03;;
24857;SDS011;12935;50.782;6.074;2023-04-22T08:25:36;31.10;;;10.93;;
24857;SDS011;12935;50.782;6.074;2023-04-22T08:28:02;33.63;;;11.80;;
24857;SDS011;12935;50.782;6.074;2023-04-22T08:30:27;43.13;;;11.83;;
24857;SDS011;12935;50.782;6.074;2023-04-22T08:32:53;33.80;;;10.43;;
24857;SDS011;12935;50.782;6.074;2023-04-22T08:35:18;40.73;;;11.63;;
24857;SDS011;12935;50.782;6.074;2023-04-22T08:37:44;28.67;;;10.53;;
24857;SDS011;12935;50.782;6.074;2023-04-22T08:40:09;38.67;;;12.57;;
24857;SDS011;12935;50.782;6.074;2023-04-22T08:42:35;39.47;;;11.83;;
24857;SDS011;12935;50.782;6.074;2023-04-22T08:45:02;30.47;;;11.23;;
24857;SDS011;12935;50.782;6.074;2023-04-22T08:47:29;27.50;;;10.50;;
24857;SDS011;12935;50.782;6.074;2023-04-22T08:49:57;51.73;;;12.90;;
24857;SDS011;12935;50.782;6.074;2023-04-22T08:52:25;27.83;;;11.57;;
24857;SDS011;12935;50.782;6.074;2023-04-22T08:54:50;36.43;;;12.43;;
24857;SDS011;12935;50.782;6.074;2023-04-22T08:57:16;46.90;;;13.53;;
24857;SDS011;12935;50.782;6.074;2023-04-22T08:59:42;27.40;;;12.40;;
24857;SDS011;12935;50.782;6.074;2023-04-22T09:02:12;21.03;;;11.00;;
24857;SDS011;12935;50.782;6.074;2023-04-22T09:04:45;27.90;;;12.83;;
24857;SDS011;12935;50.782;6.074;2023-04-22T09:07:11;36.63;;;12.17;;
24857;SDS011;12935;50.782;6.074;2023-04-22T09:09:44;37.30;;;12.70;;
24857;SDS011;12935;50.782;6.074;2023-04-22T09:12:09;27.17;;;13.13;;
24857;SDS011;12935;50.782;6.074;2023-04-22T09:14:35;31.93;;;11.40;;
24857;SDS011;12935;50.782;6.074;2023-04-22T09:17:01;26.77;;;12.10;;
24857;SDS011;12935;50.782;6.074;2023-04-22T09:19:27;53.27;;;15.00;;
24857;SDS011;12935;50.782;6.074;2023-04-22T09:21:52;33.83;;;12.80;;
24857;SDS011;12935;50.782;6.074;2023-04-22T09:24:21;34.90;;;13.53;;
24857;SDS011;12935;50.782;6.074;2023-04-22T09:26:46;36.77;;;13.83;;
24857;SDS011;12935;50.782;6.074;2023-04-22T09:29:13;28.97;;;12.93;;
24857;SDS011;12935;50.782;6.074;2023-04-22T09:31:40;20.90;;;12.13;;
24857;SDS011;12935;50.782;6.074;2023-04-22T09:34:05;23.83;;;12.40;;
24857;SDS011;12935;50.782;6.074;2023-04-22T09:36:31;38.70;;;14.67;;
24857;SDS011;12935;50.782;6.074;2023-04-22T09:39:04;26.17;;;12.70;;
24857;SDS011;12935;50.782;6.074;2023-04-22T09:41:35;42.83;;;13.73;;
24857;SDS011;12935;50.782;6.074;2023-04-22T09:44:03;50.47;;;15.90;;
24857;SDS011;12935;50.782;6.074;2023-04-22T09:46:29;30.80;;;13.17;;
24857;SDS011;12935;50.782;6.074;2023-04-22T09:48:58;44.43;;;15.70;;
24857;SDS011;12935;50.782;6.074;2023-04-22T09:51:24;55.00;;;15.77;;
24857;SDS011;12935;50.782;6.074;2023-04-22T09:53:57;32.10;;;14.00;;
24857;SDS011;12935;50.782;6.074;2023-04-22T09:56:38;30.73;;;13.63;;
24857;SDS011;12935;50.782;6.074;2023-04-22T10:01:49;23.43;;;13.67;;
24857;SDS011;12935;50.782;6.074;2023-04-22T10:04:16;49.43;;;15.50;;
24857;SDS011;12935;50.782;6.074;2023-04-22T10:06:45;17.53;;;12.83;;
24857;SDS011;12935;50.782;6.074;2023-04-22T10:09:11;26.33;;;13.63;;
24857;SDS011;12935;50.782;6.074;2023-04-22T10:11:37;46.73;;;15.70;;
24857;SDS011;12935;50.782;6.074;2023-04-22T10:14:02;25.63;;;13.20;;
24857;SDS011;12935;50.782;6.074;2023-04-22T10:16:29;31.57;;;15.00;;
24857;SDS011;12935;50.782;6.074;2023-04-22T10:18:56;37.17;;;15.77;;
24857;SDS011;12935;50.782;6.074;2023-04-22T10:21:24;27.50;;;13.60;;
24857;SDS011;12935;50.782;6.074;2023-04-22T10:23:51;30.30;;;15.33;;
24857;SDS011;12935;50.782;6.074;2023-04-22T10:29:05;53.47;;;16.87;;
24857;SDS011;12935;50.782;6.074;2023-04-22T10:31:31;30.40;;;15.13;;
24857;SDS011;12935;50.782;6.074;2023-04-22T10:34:10;33.07;;;14.83;;
24857;SDS011;12935;50.782;6.074;2023-04-22T10:39:26;60.40;;;18.37;;
24857;SDS011;12935;50.782;6.074;2023-04-22T10:41:54;32.27;;;14.60;;
24857;SDS011;12935;50.782;6.074;2023-04-22T10:44:44;24.83;;;14.67;;
24857;SDS011;12935;50.782;6.074;2023-04-22T10:47:25;23.20;;;13.30;;
24857;SDS011;12935;50.782;6.074;2023-04-22T10:49:51;28.40;;;14.63;;
24857;SDS011;12935;50.782;6.074;2023-04-22T10:52:26;39.20;;;15.57;;
24857;SDS011;12935;50.782;6.074;2023-04-22T10:57:18;41.97;;;15.57;;
24857;SDS011;12935;50.782;6.074;2023-04-22T10:59:53;33.17;;;15.53;;
24857;SDS011;12935;50.782;6.074;2023-04-22T11:02:22;30.40;;;15.50;;
24857;SDS011;12935;50.782;6.074;2023-04-22T11:04:48;35.70;;;15.03;;
24857;SDS011;12935;50.782;6.074;2023-04-22T11:09:45;27.77;;;13.40;;
24857;SDS011;12935;50.782;6.074;2023-04-22T11:14:58;33.13;;;14.60;;
24857;SDS011;12935;50.782;6.074;2023-04-22T11:17:25;31.80;;;15.17;;
24857;SDS011;12935;50.782;6.074;2023-04-22T11:19:50;32.30;;;14.00;;
24857;SDS011;12935;50.782;6.074;2023-04-22T11:22:20;42.60;;;14.93;;
24857;SDS011;12935;50.782;6.074;2023-04-22T11:24:59;40.23;;;15.73;;
24857;SDS011;12935;50.782;6.074;2023-04-22T11:27:25;33.20;;;15.10;;
24857;SDS011;12935;50.782;6.074;2023-04-22T11:29:58;39.00;;;15.67;;
24857;SDS011;12935;50.782;6.074;2023-04-22T11:32:31;38.57;;;15.00;;
24857;SDS011;12935;50.782;6.074;2023-04-22T11:34:57;36.60;;;14.93;;
24857;SDS011;12935;50.782;6.074;2023-04-22T11:37:23;27.20;;;12.93;;
24857;SDS011;12935;50.782;6.074;2023-04-22T11:39:48;22.00;;;14.27;;
24857;SDS011;12935;50.782;6.074;2023-04-22T11:42:20;49.40;;;16.60;;
24857;SDS011;12935;50.782;6.074;2023-04-22T11:44:49;17.50;;;12.17;;
24857;SDS011;12935;50.782;6.074;2023-04-22T11:47:15;35.13;;;13.73;;
24857;SDS011;12935;50.782;6.074;2023-04-22T11:49:40;41.90;;;14.10;;
24857;SDS011;12935;50.782;6.074;2023-04-22T11:52:05;21.47;;;12.40;;
24857;SDS011;12935;50.782;6.074;2023-04-22T11:54:33;37.27;;;14.87;;
24857;SDS011;12935;50.782;6.074;2023-04-22T11:57:01;40.23;;;14.33;;
24857;SDS011;12935;50.782;6.074;2023-04-22T11:59:27;49.70;;;15.57;;
24857;SDS011;12935;50.782;6.074;2023-04-22T12:01:52;40.50;;;13.57;;
24857;SDS011;12935;50.782;6.074;2023-04-22T12:04:20;36.57;;;13.80;;
24857;SDS011;12935;50.782;6.074;2023-04-22T12:06:46;43.03;;;14.43;;
24857;SDS011;12935;50.782;6.074;2023-04-22T12:09:11;27.80;;;12.77;;
24857;SDS011;12935;50.782;6.074;2023-04-22T12:11:37;33.80;;;12.67;;
24857;SDS011;12935;50.782;6.074;2023-04-22T12:14:05;26.07;;;11.47;;
24857;SDS011;12935;50.782;6.074;2023-04-22T12:16:40;32.83;;;12.40;;
24857;SDS011;12935;50.782;6.074;2023-04-22T12:19:06;41.37;;;13.90;;
24857;SDS011;12935;50.782;6.074;2023-04-22T12:21:32;59.90;;;16.13;;
24857;SDS011;12935;50.782;6.074;2023-04-22T12:23:58;40.47;;;13.50;;
24857;SDS011;12935;50.782;6.074;2023-04-22T12:26:25;34.43;;;13.13;;
24857;SDS011;12935;50.782;6.074;2023-04-22T12:28:51;30.17;;;13.47;;
24857;SDS011;12935;50.782;6.074;2023-04-22T12:31:17;28.13;;;12.40;;
24857;SDS011;12935;50.782;6.074;2023-04-22T12:33:43;23.07;;;11.80;;
24857;SDS011;12935;50.782;6.074;2023-04-22T12:36:10;62.50;;;16.80;;
24857;SDS011;12935;50.782;6.074;2023-04-22T12:38:35;21.03;;;12.27;;
24857;SDS011;12935;50.782;6.074;2023-04-22T12:41:02;30.17;;;12.70;;
24857;SDS011;12935;50.782;6.074;2023-04-22T12:43:28;69.77;;;17.07;;
24857;SDS011;12935;50.782;6.074;2023-04-22T12:45:56;21.07;;;11.70;;
24857;SDS011;12935;50.782;6.074;2023-04-22T12:48:22;52.07;;;15.57;;
24857;SDS011;12935;50.782;6.074;2023-04-22T12:50:47;35.53;;;14.97;;
24857;SDS011;12935;50.782;6.074;2023-04-22T12:53:13;29.87;;;14.03;;
24857;SDS011;12935;50.782;6.074;2023-04-22T12:55:39;19.83;;;11.70;;
24857;SDS011;12935;50.782;6.074;2023-04-22T12:58:05;32.43;;;13.47;;
24857;SDS011;12935;50.782;6.074;2023-04-22T13:00:30;29.63;;;12.93;;
24857;SDS011;12935;50.782;6.074;2023-04-22T13:02:56;20.70;;;12.17;;
24857;SDS011;12935;50.782;6.074;2023-04-22T13:05:21;31.77;;;12.70;;
24857;SDS011;12935;50.782;6.074;2023-04-22T13:07:46;27.07;;;13.20;;
24857;SDS011;12935;50.782;6.074;2023-04-22T13:10:13;32.27;;;12.60;;
24857;SDS011;12935;50.782;6.074;2023-04-22T13:12:40;32.10;;;11.30;;
24857;SDS011;12935;50.782;6.074;2023-04-22T13:15:06;72.50;;;16.37;;
24857;SDS011;12935;50.782;6.074;2023-04-22T13:17:33;33.97;;;12.53;;
24857;SDS011;12935;50.782;6.074;2023-04-22T13:19:58;25.60;;;11.27;;
24857;SDS011;12935;50.782;6.074;2023-04-22T13:22:24;29.07;;;12.20;;
24857;SDS011;12935;50.782;6.074;2023-04-22T13:24:49;38.67;;;12.43;;
24857;SDS011;12935;50.782;6.074;2023-04-22T13:27:15;31.87;;;11.30;;
24857;SDS011;12935;50.782;6.074;2023-04-22T13:29:40;29.43;;;11.17;;
24857;SDS011;12935;50.782;6.074;2023-04-22T13:32:06;32.23;;;11.63;;
24857;SDS011;12935;50.782;6.074;2023-04-22T13:34:32;26.70;;;10.93;;
24857;SDS011;12935;50.782;6.074;2023-04-22T13:36:58;28.07;;;11.77;;
24857;SDS011;12935;50.782;6.074;2023-04-22T13:39:24;26.97;;;10.80;;
24857;SDS011;12935;50.782;6.074;2023-04-22T13:41:50;37.60;;;12.57;;
24857;SDS011;12935;50.782;6.074;2023-04-22T13:44:15;32.60;;;11.33;;
24857;SDS011;12935;50.782;6.074;2023-04-22T13:46:41;43.80;;;12.80;;
24857;SDS011;12935;50.782;6.074;2023-04-22T13:49:07;34.07;;;12.90;;
24857;SDS011;12935;50.782;6.074;2023-04-22T13:51:32;24.53;;;9.80;;
24857;SDS011;12935;50.782;6.074;2023-04-22T13:53:58;21.57;;;10.70;;
24857;SDS011;12935;50.782;6.074;2023-04-22T13:56:25;28.10;;;10.43;;
24857;SDS011;12935;50.782;6.074;2023-04-22T13:58:50;82.07;;;15.50;;
24857;SDS011;12935;50.782;6.074;2023-04-22T14:01:17;60.40;;;13.70;;
24857;SDS011;12935;50.782;6.074;2023-04-22T14:03:43;35.03;;;11.20;;
24857;SDS011;12935;50.782;6.074;2023-04-22T14:06:10;35.43;;;11.10;;
24857;SDS011;12935;50.782;6.074;2023-04-22T14:08:36;31.23;;;10.83;;
24857;SDS011;12935;50.782;6.074;2023-04-22T14:11:02;28.37;;;10.63;;
24857;SDS011;12935;50.782;6.074;2023-04-22T14:13:28;30.30;;;10.63;;
24857;SDS011;12935;50.782;6.074;2023-04-22T14:15:54;47.93;;;12.47;;
24857;SDS011;12935;50.782;6.074;2023-04-22T14:18:19;56.40;;;13.13;;
24857;SDS011;12935;50.782;6.074;2023-04-22T14:20:49;31.23;;;10.60;;
24857;SDS011;12935;50.782;6.074;2023-04-22T14:23:15;30.73;;;11.10;;
24857;SDS011;12935;50.782;6.074;2023-04-22T14:25:41;36.13;;;12.13;;
24857;SDS011;12935;50.782;6.074;2023-04-22T14:28:07;48.80;;;12.67;;
24857;SDS011;12935;50.782;6.074;2023-04-22T14:30:33;30.47;;;11.17;;
24857;SDS011;12935;50.782;6.074;2023-04-22T14:32:58;40.27;;;12.47;;
24857;SDS011;12935;50.782;6.074;2023-04-22T14:35:24;56.17;;;13.47;;
24857;SDS011;12935;50.782;6.074;2023-04-22T14:37:49;27.13;;;10.03;;